sensor_id;sensor_type;location;lat;lon;timestamp;temperature;humidity
22827;DHT22;11580;52.562;13.418;2023-07-29T00:01:59;21.90;44.50
22827;DHT22;11580;52.562;13.418;2023-07-29T00:04:26;21.90;44.60
22827;DHT22;11580;52.562;13.418;2023-07-29T00:06:53;21.80;44.60
22827;DHT22;11580;52.562;13.418;2023-07-29T00:09:22;21.80;44.60
22827;DHT22;11580;52.562;13.418;2023-07-29T00:11:49;21.70;44.90
22827;DHT22;11580;52.562;13.418;2023-07-29T00:14:16;21.70;44.70
22827;DHT22;11580;52.562;13.418;2023-07-29T00:16:43;21.70;45.50
22827;DHT22;11580;52.562;13.418;2023-07-29T00:19:10;21.60;44.80
22827;DHT22;11580;52.562;13.418;2023-07-29T00:21:37;21.60;44.90
22827;DHT22;11580;52.562;13.418;2023-07-29T00:24:05;21.50;44.80
22827;DHT22;11580;52.562;13.418;2023-07-29T00:26:34;21.50;44.90
22827;DHT22;11580;52.562;13.418;2023-07-29T00:29:01;21.50;45.20
22827;DHT22;11580;52.562;13.418;2023-07-29T00:31:28;21.40;44.90
22827;DHT22;11580;52.562;13.418;2023-07-29T00:33:56;21.40;45.00
22827;DHT22;11580;52.562;13.418;2023-07-29T00:36:24;21.40;45.10
22827;DHT22;11580;52.562;13.418;2023-07-29T00:38:52;21.40;45.20
22827;DHT22;11580;52.562;13.418;2023-07-29T00:41:22;21.30;45.20
22827;DHT22;11580;52.562;13.418;2023-07-29T00:43:54;21.30;45.30
22827;DHT22;11580;52.562;13.418;2023-07-29T00:46:22;21.30;45.50
22827;DHT22;11580;52.562;13.418;2023-07-29T00:48:50;21.20;45.20
22827;DHT22;11580;52.562;13.418;2023-07-29T00:51:17;21.20;45.90
22827;DHT22;11580;52.562;13.418;2023-07-29T00:53:44;21.20;45.90
22827;DHT22;11580;52.562;13.418;2023-07-29T00:56:12;21.10;45.20
22827;DHT22;11580;52.562;13.418;2023-07-29T00:58:40;21.10;45.40
22827;DHT22;11580;52.562;13.418;2023-07-29T01:01:09;21.10;45.50
22827;DHT22;11580;52.562;13.418;2023-07-29T01:03:36;21.10;45.70
22827;DHT22;11580;52.562;13.418;2023-07-29T01:06:12;21.00;45.30
22827;DHT22;11580;52.562;13.418;2023-07-29T01:08:51;21.00;46.20
22827;DHT22;11580;52.562;13.418;2023-07-29T01:11:35;21.00;46.10
22827;DHT22;11580;52.562;13.418;2023-07-29T01:14:18;21.00;46.40
22827;DHT22;11580;52.562;13.418;2023-07-29T01:16:54;21.00;46.40
22827;DHT22;11580;52.562;13.418;2023-07-29T01:19:41;20.90;45.90
22827;DHT22;11580;52.562;13.418;2023-07-29T01:22:16;20.90;46.60
22827;DHT22;11580;52.562;13.418;2023-07-29T01:24:45;20.90;45.80
22827;DHT22;11580;52.562;13.418;2023-07-29T01:27:12;20.90;46.50
22827;DHT22;11580;52.562;13.418;2023-07-29T01:29:40;20.90;45.70
22827;DHT22;11580;52.562;13.418;2023-07-29T01:32:11;20.80;45.70
22827;DHT22;11580;52.562;13.418;2023-07-29T01:34:48;20.80;46.30
22827;DHT22;11580;52.562;13.418;2023-07-29T01:37:26;20.80;46.30
22827;DHT22;11580;52.562;13.418;2023-07-29T01:39:59;20.80;46.50
22827;DHT22;11580;52.562;13.418;2023-07-29T01:42:29;20.80;46.10
22827;DHT22;11580;52.562;13.418;2023-07-29T01:44:56;20.80;45.80
22827;DHT22;11580;52.562;13.418;2023-07-29T01:47:25;20.70;45.70
22827;DHT22;11580;52.562;13.418;2023-07-29T01:49:54;20.70;45.70
22827;DHT22;11580;52.562;13.418;2023-07-29T01:52:21;20.70;45.80
22827;DHT22;11580;52.562;13.418;2023-07-29T01:54:48;20.70;45.90
22827;DHT22;11580;52.562;13.418;2023-07-29T01:57:18;20.70;46.00
22827;DHT22;11580;52.562;13.418;2023-07-29T01:59:45;20.70;46.30
22827;DHT22;11580;52.562;13.418;2023-07-29T02:02:12;20.70;46.00
22827;DHT22;11580;52.562;13.418;2023-07-29T02:04:39;20.70;46.10
22827;DHT22;11580;52.562;13.418;2023-07-29T02:07:07;20.60;46.80
22827;DHT22;11580;52.562;13.418;2023-07-29T02:09:34;20.60;46.10
22827;DHT22;11580;52.562;13.418;2023-07-29T02:12:01;20.70;46.20
22827;DHT22;11580;52.562;13.418;2023-07-29T02:14:38;20.70;46.20
22827;DHT22;11580;52.562;13.418;2023-07-29T02:17:05;20.60;46.30
22827;DHT22;11580;52.562;13.418;2023-07-29T02:19:32;20.60;46.00
22827;DHT22;11580;52.562;13.418;2023-07-29T02:22:00;20.60;45.90
22827;DHT22;11580;52.562;13.418;2023-07-29T02:24:27;20.60;45.90
22827;DHT22;11580;52.562;13.418;2023-07-29T02:26:54;20.60;45.90
22827;DHT22;11580;52.562;13.418;2023-07-29T02:29:21;20.60;46.00
22827;DHT22;11580;52.562;13.418;2023-07-29T02:31:50;20.60;46.00
22827;DHT22;11580;52.562;13.418;2023-07-29T02:34:17;20.50;46.20
22827;DHT22;11580;52.562;13.418;2023-07-29T02:36:44;20.50;46.00
22827;DHT22;11580;52.562;13.418;2023-07-29T02:39:12;20.50;46.20
22827;DHT22;11580;52.562;13.418;2023-07-29T02:41:40;20.50;46.30
22827;DHT22;11580;52.562;13.418;2023-07-29T02:44:07;20.50;46.40
22827;DHT22;11580;52.562;13.418;2023-07-29T02:46:34;20.40;46.50
22827;DHT22;11580;52.562;13.418;2023-07-29T02:49:02;20.50;46.70
22827;DHT22;11580;52.562;13.418;2023-07-29T02:51:30;20.50;47.00
22827;DHT22;11580;52.562;13.418;2023-07-29T02:53:57;20.50;46.80
22827;DHT22;11580;52.562;13.418;2023-07-29T02:56:25;20.50;46.70
22827;DHT22;11580;52.562;13.418;2023-07-29T02:58:52;20.50;46.70
22827;DHT22;11580;52.562;13.418;2023-07-29T03:01:19;20.50;46.70
22827;DHT22;11580;52.562;13.418;2023-07-29T03:03:46;20.60;46.80
22827;DHT22;11580;52.562;13.418;2023-07-29T03:06:15;20.50;46.60
22827;DHT22;11580;52.562;13.418;2023-07-29T03:08:42;20.60;46.80
22827;DHT22;11580;52.562;13.418;2023-07-29T03:11:13;20.50;46.40
22827;DHT22;11580;52.562;13.418;2023-07-29T03:13:41;20.50;46.70
22827;DHT22;11580;52.562;13.418;2023-07-29T03:16:10;20.50;46.40
22827;DHT22;11580;52.562;13.418;2023-07-29T03:18:40;20.50;46.40
22827;DHT22;11580;52.562;13.418;2023-07-29T03:21:08;20.40;46.40
22827;DHT22;11580;52.562;13.418;2023-07-29T03:23:37;20.40;46.50
22827;DHT22;11580;52.562;13.418;2023-07-29T03:26:05;20.40;46.80
22827;DHT22;11580;52.562;13.418;2023-07-29T03:28:38;20.40;46.60
22827;DHT22;11580;52.562;13.418;2023-07-29T03:31:06;20.40;46.90
22827;DHT22;11580;52.562;13.418;2023-07-29T03:33:33;20.40;46.90
22827;DHT22;11580;52.562;13.418;2023-07-29T03:36:01;20.40;47.10
22827;DHT22;11580;52.562;13.418;2023-07-29T03:38:28;20.40;47.20
22827;DHT22;11580;52.562;13.418;2023-07-29T03:40:57;20.50;47.40
22827;DHT22;11580;52.562;13.418;2023-07-29T03:43:24;20.50;47.80
22827;DHT22;11580;52.562;13.418;2023-07-29T03:45:55;20.50;47.60
22827;DHT22;11580;52.562;13.418;2023-07-29T03:48:22;20.60;47.70
22827;DHT22;11580;52.562;13.418;2023-07-29T03:50:49;20.60;47.70
22827;DHT22;11580;52.562;13.418;2023-07-29T03:53:16;20.70;48.40
22827;DHT22;11580;52.562;13.418;2023-07-29T03:55:44;20.70;49.30
22827;DHT22;11580;52.562;13.418;2023-07-29T03:58:12;20.90;49.60
22827;DHT22;11580;52.562;13.418;2023-07-29T04:00:40;21.00;49.70
22827;DHT22;11580;52.562;13.418;2023-07-29T04:03:08;21.20;49.90
22827;DHT22;11580;52.562;13.418;2023-07-29T04:05:35;21.50;50.20
22827;DHT22;11580;52.562;13.418;2023-07-29T04:08:03;21.70;50.10
22827;DHT22;11580;52.562;13.418;2023-07-29T04:10:30;22.00;49.00
22827;DHT22;11580;52.562;13.418;2023-07-29T04:12:58;22.20;48.00
22827;DHT22;11580;52.562;13.418;2023-07-29T04:15:27;22.30;47.20
22827;DHT22;11580;52.562;13.418;2023-07-29T04:17:54;22.40;46.60
22827;DHT22;11580;52.562;13.418;2023-07-29T04:20:21;22.40;46.50
22827;DHT22;11580;52.562;13.418;2023-07-29T04:22:48;22.50;47.50
22827;DHT22;11580;52.562;13.418;2023-07-29T04:25:15;22.60;48.20
22827;DHT22;11580;52.562;13.418;2023-07-29T04:27:43;22.70;47.00
22827;DHT22;11580;52.562;13.418;2023-07-29T04:30:10;22.90;48.30
22827;DHT22;11580;52.562;13.418;2023-07-29T04:32:39;23.00;47.10
22827;DHT22;11580;52.562;13.418;2023-07-29T04:35:08;23.20;47.10
22827;DHT22;11580;52.562;13.418;2023-07-29T04:37:36;23.40;46.80
22827;DHT22;11580;52.562;13.418;2023-07-29T04:40:04;23.60;46.50
22827;DHT22;11580;52.562;13.418;2023-07-29T04:42:32;23.80;46.80
22827;DHT22;11580;52.562;13.418;2023-07-29T04:44:59;24.00;47.70
22827;DHT22;11580;52.562;13.418;2023-07-29T04:47:26;24.40;48.30
22827;DHT22;11580;52.562;13.418;2023-07-29T04:49:55;24.80;48.40
22827;DHT22;11580;52.562;13.418;2023-07-29T04:52:22;25.40;47.40
22827;DHT22;11580;52.562;13.418;2023-07-29T04:54:50;25.90;47.10
22827;DHT22;11580;52.562;13.418;2023-07-29T04:57:17;26.50;45.70
22827;DHT22;11580;52.562;13.418;2023-07-29T04:59:44;26.90;43.50
22827;DHT22;11580;52.562;13.418;2023-07-29T05:02:12;27.20;43.00
22827;DHT22;11580;52.562;13.418;2023-07-29T05:04:39;27.40;41.60
22827;DHT22;11580;52.562;13.418;2023-07-29T05:07:07;27.60;41.60
22827;DHT22;11580;52.562;13.418;2023-07-29T05:09:34;27.90;40.00
22827;DHT22;11580;52.562;13.418;2023-07-29T05:12:02;28.10;40.30
22827;DHT22;11580;52.562;13.418;2023-07-29T05:14:29;28.20;39.10
22827;DHT22;11580;52.562;13.418;2023-07-29T05:16:57;28.30;38.60
22827;DHT22;11580;52.562;13.418;2023-07-29T05:19:24;28.50;38.40
22827;DHT22;11580;52.562;13.418;2023-07-29T05:21:51;28.60;38.60
22827;DHT22;11580;52.562;13.418;2023-07-29T05:24:20;28.70;37.40
22827;DHT22;11580;52.562;13.418;2023-07-29T05:26:48;28.70;36.30
22827;DHT22;11580;52.562;13.418;2023-07-29T05:29:15;28.80;36.30
22827;DHT22;11580;52.562;13.418;2023-07-29T05:31:42;28.70;36.10
22827;DHT22;11580;52.562;13.418;2023-07-29T05:34:10;28.60;35.80
22827;DHT22;11580;52.562;13.418;2023-07-29T05:36:37;28.50;35.80
22827;DHT22;11580;52.562;13.418;2023-07-29T05:39:05;28.40;35.90
22827;DHT22;11580;52.562;13.418;2023-07-29T05:41:34;28.30;36.10
22827;DHT22;11580;52.562;13.418;2023-07-29T05:44:01;28.30;36.90
22827;DHT22;11580;52.562;13.418;2023-07-29T05:46:28;28.20;36.30
22827;DHT22;11580;52.562;13.418;2023-07-29T05:48:55;28.20;36.90
22827;DHT22;11580;52.562;13.418;2023-07-29T05:51:22;28.20;35.80
22827;DHT22;11580;52.562;13.418;2023-07-29T05:53:50;28.10;35.80
22827;DHT22;11580;52.562;13.418;2023-07-29T05:56:17;28.00;35.50
22827;DHT22;11580;52.562;13.418;2023-07-29T05:58:45;27.90;35.50
22827;DHT22;11580;52.562;13.418;2023-07-29T06:01:12;27.80;35.90
22827;DHT22;11580;52.562;13.418;2023-07-29T06:03:40;27.70;35.60
22827;DHT22;11580;52.562;13.418;2023-07-29T06:06:08;27.60;35.70
22827;DHT22;11580;52.562;13.418;2023-07-29T06:08:35;27.40;36.00
22827;DHT22;11580;52.562;13.418;2023-07-29T06:11:02;27.30;36.10
22827;DHT22;11580;52.562;13.418;2023-07-29T06:13:31;27.20;36.10
22827;DHT22;11580;52.562;13.418;2023-07-29T06:16:00;27.10;37.10
22827;DHT22;11580;52.562;13.418;2023-07-29T06:18:28;27.00;36.50
22827;DHT22;11580;52.562;13.418;2023-07-29T06:20:55;26.90;37.50
22827;DHT22;11580;52.562;13.418;2023-07-29T06:23:22;26.80;36.80
22827;DHT22;11580;52.562;13.418;2023-07-29T06:25:49;26.70;36.90
22827;DHT22;11580;52.562;13.418;2023-07-29T06:28:16;26.70;37.20
22827;DHT22;11580;52.562;13.418;2023-07-29T06:30:43;26.60;37.30
22827;DHT22;11580;52.562;13.418;2023-07-29T06:33:12;26.50;37.20
22827;DHT22;11580;52.562;13.418;2023-07-29T06:35:39;26.50;37.20
22827;DHT22;11580;52.562;13.418;2023-07-29T06:38:07;26.50;37.40
22827;DHT22;11580;52.562;13.418;2023-07-29T06:40:35;26.50;37.50
22827;DHT22;11580;52.562;13.418;2023-07-29T06:43:02;26.50;37.80
22827;DHT22;11580;52.562;13.418;2023-07-29T06:45:29;26.50;37.80
22827;DHT22;11580;52.562;13.418;2023-07-29T06:47:56;26.50;37.90
22827;DHT22;11580;52.562;13.418;2023-07-29T06:50:25;26.50;37.90
22827;DHT22;11580;52.562;13.418;2023-07-29T06:52:52;26.50;37.90
22827;DHT22;11580;52.562;13.418;2023-07-29T06:55:19;26.60;38.10
22827;DHT22;11580;52.562;13.418;2023-07-29T06:57:46;26.60;38.00
22827;DHT22;11580;52.562;13.418;2023-07-29T07:00:14;26.70;38.00
22827;DHT22;11580;52.562;13.418;2023-07-29T07:02:41;26.70;37.70
22827;DHT22;11580;52.562;13.418;2023-07-29T07:05:08;26.80;38.40
22827;DHT22;11580;52.562;13.418;2023-07-29T07:07:37;26.90;37.70
22827;DHT22;11580;52.562;13.418;2023-07-29T07:10:05;27.00;37.70
22827;DHT22;11580;52.562;13.418;2023-07-29T07:12:33;27.10;38.10
22827;DHT22;11580;52.562;13.418;2023-07-29T07:15:00;27.30;38.60
22827;DHT22;11580;52.562;13.418;2023-07-29T07:17:27;27.50;37.90
22827;DHT22;11580;52.562;13.418;2023-07-29T07:19:55;27.70;37.60
22827;DHT22;11580;52.562;13.418;2023-07-29T07:22:22;27.90;37.40
22827;DHT22;11580;52.562;13.418;2023-07-29T07:24:51;28.10;36.90
22827;DHT22;11580;52.562;13.418;2023-07-29T07:27:18;28.40;36.40
22827;DHT22;11580;52.562;13.418;2023-07-29T07:29:45;28.60;36.10
22827;DHT22;11580;52.562;13.418;2023-07-29T07:32:12;28.80;35.60
22827;DHT22;11580;52.562;13.418;2023-07-29T07:34:39;29.00;35.10
22827;DHT22;11580;52.562;13.418;2023-07-29T07:37:06;29.10;34.70
22827;DHT22;11580;52.562;13.418;2023-07-29T07:39:33;29.20;34.10
22827;DHT22;11580;52.562;13.418;2023-07-29T07:42:02;29.30;33.80
22827;DHT22;11580;52.562;13.418;2023-07-29T07:44:30;29.30;33.50
22827;DHT22;11580;52.562;13.418;2023-07-29T07:46:57;29.40;33.80
22827;DHT22;11580;52.562;13.418;2023-07-29T07:49:24;29.40;33.70
22827;DHT22;11580;52.562;13.418;2023-07-29T07:51:51;29.50;33.40
22827;DHT22;11580;52.562;13.418;2023-07-29T07:54:18;29.50;33.40
22827;DHT22;11580;52.562;13.418;2023-07-29T07:56:45;29.60;34.10
22827;DHT22;11580;52.562;13.418;2023-07-29T07:59:14;29.70;33.30
22827;DHT22;11580;52.562;13.418;2023-07-29T08:01:41;29.80;33.00
22827;DHT22;11580;52.562;13.418;2023-07-29T08:04:08;29.90;33.90
22827;DHT22;11580;52.562;13.418;2023-07-29T08:06:35;30.00;32.80
22827;DHT22;11580;52.562;13.418;2023-07-29T08:09:02;30.10;32.20
22827;DHT22;11580;52.562;13.418;2023-07-29T08:11:29;30.10;31.80
22827;DHT22;11580;52.562;13.418;2023-07-29T08:13:58;30.20;31.70
22827;DHT22;11580;52.562;13.418;2023-07-29T08:16:26;30.20;31.60
22827;DHT22;11580;52.562;13.418;2023-07-29T08:18:53;30.20;31.60
22827;DHT22;11580;52.562;13.418;2023-07-29T08:21:20;30.20;31.60
22827;DHT22;11580;52.562;13.418;2023-07-29T08:23:48;30.20;31.60
22827;DHT22;11580;52.562;13.418;2023-07-29T08:26:15;30.20;31.60
22827;DHT22;11580;52.562;13.418;2023-07-29T08:28:42;30.20;31.60
22827;DHT22;11580;52.562;13.418;2023-07-29T08:31:09;30.30;32.30
22827;DHT22;11580;52.562;13.418;2023-07-29T08:33:38;30.30;32.30
22827;DHT22;11580;52.562;13.418;2023-07-29T08:36:05;30.50;31.80
22827;DHT22;11580;52.562;13.418;2023-07-29T08:38:32;30.60;31.80
22827;DHT22;11580;52.562;13.418;2023-07-29T08:41:13;30.70;31.50
22827;DHT22;11580;52.562;13.418;2023-07-29T08:43:47;30.80;30.40
22827;DHT22;11580;52.562;13.418;2023-07-29T08:46:19;30.90;30.70
22827;DHT22;11580;52.562;13.418;2023-07-29T08:48:48;31.00;31.50
22827;DHT22;11580;52.562;13.418;2023-07-29T08:51:17;31.10;30.50
22827;DHT22;11580;52.562;13.418;2023-07-29T08:53:46;31.20;30.50
22827;DHT22;11580;52.562;13.418;2023-07-29T08:56:13;31.30;30.80
22827;DHT22;11580;52.562;13.418;2023-07-29T08:58:42;31.50;30.40
22827;DHT22;11580;52.562;13.418;2023-07-29T09:01:10;31.70;30.00
22827;DHT22;11580;52.562;13.418;2023-07-29T09:03:37;31.80;29.70
22827;DHT22;11580;52.562;13.418;2023-07-29T09:06:06;31.90;29.30
22827;DHT22;11580;52.562;13.418;2023-07-29T09:08:35;32.00;28.70
22827;DHT22;11580;52.562;13.418;2023-07-29T09:11:02;31.90;28.90
22827;DHT22;11580;52.562;13.418;2023-07-29T09:13:30;31.90;29.40
22827;DHT22;11580;52.562;13.418;2023-07-29T09:15:57;31.90;28.90
22827;DHT22;11580;52.562;13.418;2023-07-29T09:18:26;31.90;28.80
22827;DHT22;11580;52.562;13.418;2023-07-29T09:20:54;31.90;28.70
22827;DHT22;11580;52.562;13.418;2023-07-29T09:23:27;31.90;28.90
22827;DHT22;11580;52.562;13.418;2023-07-29T09:26:01;32.00;28.40
22827;DHT22;11580;52.562;13.418;2023-07-29T09:28:33;32.10;28.00
22827;DHT22;11580;52.562;13.418;2023-07-29T09:31:01;32.20;27.90
22827;DHT22;11580;52.562;13.418;2023-07-29T09:33:29;32.40;28.60
22827;DHT22;11580;52.562;13.418;2023-07-29T09:35:58;32.50;28.40
22827;DHT22;11580;52.562;13.418;2023-07-29T09:38:29;32.60;28.20
22827;DHT22;11580;52.562;13.418;2023-07-29T09:40:57;32.90;27.40
22827;DHT22;11580;52.562;13.418;2023-07-29T09:43:29;33.00;27.70
22827;DHT22;11580;52.562;13.418;2023-07-29T09:46:00;33.10;26.90
22827;DHT22;11580;52.562;13.418;2023-07-29T09:48:28;33.30;26.90
22827;DHT22;11580;52.562;13.418;2023-07-29T09:50:59;33.40;27.20
22827;DHT22;11580;52.562;13.418;2023-07-29T09:53:26;33.60;27.40
22827;DHT22;11580;52.562;13.418;2023-07-29T09:55:55;33.70;26.50
22827;DHT22;11580;52.562;13.418;2023-07-29T09:58:27;33.80;26.10
22827;DHT22;11580;52.562;13.418;2023-07-29T10:00:54;33.90;25.50
22827;DHT22;11580;52.562;13.418;2023-07-29T10:03:21;33.90;25.90
22827;DHT22;11580;52.562;13.418;2023-07-29T10:05:49;33.90;25.60
22827;DHT22;11580;52.562;13.418;2023-07-29T10:08:18;33.90;26.10
22827;DHT22;11580;52.562;13.418;2023-07-29T10:10:47;33.90;26.00
22827;DHT22;11580;52.562;13.418;2023-07-29T10:13:18;33.90;26.00
22827;DHT22;11580;52.562;13.418;2023-07-29T10:15:45;33.90;25.30
22827;DHT22;11580;52.562;13.418;2023-07-29T10:18:14;33.90;26.00
22827;DHT22;11580;52.562;13.418;2023-07-29T10:20:43;34.00;25.20
22827;DHT22;11580;52.562;13.418;2023-07-29T10:23:11;34.00;25.40
22827;DHT22;11580;52.562;13.418;2023-07-29T10:25:45;34.00;25.40
22827;DHT22;11580;52.562;13.418;2023-07-29T10:28:18;34.00;25.40
22827;DHT22;11580;52.562;13.418;2023-07-29T10:30:50;34.00;24.80
22827;DHT22;11580;52.562;13.418;2023-07-29T10:33:18;34.00;24.70
22827;DHT22;11580;52.562;13.418;2023-07-29T10:35:46;33.90;24.70
22827;DHT22;11580;52.562;13.418;2023-07-29T10:38:13;33.70;24.60
22827;DHT22;11580;52.562;13.418;2023-07-29T10:40:46;33.60;24.90
22827;DHT22;11580;52.562;13.418;2023-07-29T10:43:24;33.50;25.20
22827;DHT22;11580;52.562;13.418;2023-07-29T10:45:52;33.40;24.70
22827;DHT22;11580;52.562;13.418;2023-07-29T10:48:39;33.30;25.40
22827;DHT22;11580;52.562;13.418;2023-07-29T10:51:23;33.30;25.40
22827;DHT22;11580;52.562;13.418;2023-07-29T10:53:55;33.30;25.90
22827;DHT22;11580;52.562;13.418;2023-07-29T10:56:27;33.30;25.20
22827;DHT22;11580;52.562;13.418;2023-07-29T10:58:58;33.30;25.20
22827;DHT22;11580;52.562;13.418;2023-07-29T11:01:29;33.30;25.00
22827;DHT22;11580;52.562;13.418;2023-07-29T11:09:57;33.00;24.50
22827;DHT22;11580;52.562;13.418;2023-07-29T11:12:50;32.80;24.70
22827;DHT22;11580;52.562;13.418;2023-07-29T11:15:23;32.60;24.70
22827;DHT22;11580;52.562;13.418;2023-07-29T11:17:52;32.30;24.60
22827;DHT22;11580;52.562;13.418;2023-07-29T11:20:22;32.10;24.80
22827;DHT22;11580;52.562;13.418;2023-07-29T11:22:52;31.70;26.90
22827;DHT22;11580;52.562;13.418;2023-07-29T11:25:21;31.40;27.50
22827;DHT22;11580;52.562;13.418;2023-07-29T11:27:52;31.00;28.60
22827;DHT22;11580;52.562;13.418;2023-07-29T11:30:21;30.40;29.40
22827;DHT22;11580;52.562;13.418;2023-07-29T11:32:49;29.60;29.70
22827;DHT22;11580;52.562;13.418;2023-07-29T11:35:18;28.90;30.50
22827;DHT22;11580;52.562;13.418;2023-07-29T11:37:46;28.20;31.80
22827;DHT22;11580;52.562;13.418;2023-07-29T11:40:16;27.60;33.30
22827;DHT22;11580;52.562;13.418;2023-07-29T11:42:44;27.10;34.70
22827;DHT22;11580;52.562;13.418;2023-07-29T11:45:12;26.60;36.10
22827;DHT22;11580;52.562;13.418;2023-07-29T11:47:42;26.20;37.00
22827;DHT22;11580;52.562;13.418;2023-07-29T11:50:11;25.90;38.50
22827;DHT22;11580;52.562;13.418;2023-07-29T11:52:41;25.70;39.40
22827;DHT22;11580;52.562;13.418;2023-07-29T11:55:09;25.50;40.50
22827;DHT22;11580;52.562;13.418;2023-07-29T11:57:37;25.30;41.10
22827;DHT22;11580;52.562;13.418;2023-07-29T12:00:06;25.30;42.00
22827;DHT22;11580;52.562;13.418;2023-07-29T12:02:39;25.20;42.70
22827;DHT22;11580;52.562;13.418;2023-07-29T12:05:09;25.20;43.80
22827;DHT22;11580;52.562;13.418;2023-07-29T12:07:38;25.20;44.50
22827;DHT22;11580;52.562;13.418;2023-07-29T12:10:06;25.10;44.60
22827;DHT22;11580;52.562;13.418;2023-07-29T12:12:38;25.20;46.20
22827;DHT22;11580;52.562;13.418;2023-07-29T12:15:11;25.30;47.50
22827;DHT22;11580;52.562;13.418;2023-07-29T12:17:40;25.30;46.80
22827;DHT22;11580;52.562;13.418;2023-07-29T12:20:10;25.30;47.10
22827;DHT22;11580;52.562;13.418;2023-07-29T12:22:38;25.30;48.00
22827;DHT22;11580;52.562;13.418;2023-07-29T12:25:06;25.30;47.30
22827;DHT22;11580;52.562;13.418;2023-07-29T12:27:33;25.40;47.90
22827;DHT22;11580;52.562;13.418;2023-07-29T12:30:01;25.40;49.00
22827;DHT22;11580;52.562;13.418;2023-07-29T12:32:29;25.50;49.10
22827;DHT22;11580;52.562;13.418;2023-07-29T12:34:57;25.50;49.20
22827;DHT22;11580;52.562;13.418;2023-07-29T12:37:32;25.60;49.60
22827;DHT22;11580;52.562;13.418;2023-07-29T12:40:00;25.70;52.40
22827;DHT22;11580;52.562;13.418;2023-07-29T12:42:27;25.80;50.60
22827;DHT22;11580;52.562;13.418;2023-07-29T12:44:54;25.90;50.90
22827;DHT22;11580;52.562;13.418;2023-07-29T12:47:21;26.00;52.00
22827;DHT22;11580;52.562;13.418;2023-07-29T12:49:48;26.10;52.50
22827;DHT22;11580;52.562;13.418;2023-07-29T12:52:16;26.20;52.50
22827;DHT22;11580;52.562;13.418;2023-07-29T12:54:45;26.40;53.50
22827;DHT22;11580;52.562;13.418;2023-07-29T12:57:12;26.60;54.20
22827;DHT22;11580;52.562;13.418;2023-07-29T12:59:39;26.80;54.70
22827;DHT22;11580;52.562;13.418;2023-07-29T13:02:06;27.00;55.30
22827;DHT22;11580;52.562;13.418;2023-07-29T13:04:34;27.30;56.30
22827;DHT22;11580;52.562;13.418;2023-07-29T13:07:01;27.50;55.90
22827;DHT22;11580;52.562;13.418;2023-07-29T13:09:28;27.80;55.50
22827;DHT22;11580;52.562;13.418;2023-07-29T13:11:57;27.90;55.70
22827;DHT22;11580;52.562;13.418;2023-07-29T13:14:24;28.20;55.90
22827;DHT22;11580;52.562;13.418;2023-07-29T13:16:52;28.30;55.30
22827;DHT22;11580;52.562;13.418;2023-07-29T13:19:19;28.50;55.10
22827;DHT22;11580;52.562;13.418;2023-07-29T13:21:46;28.70;54.40
22827;DHT22;11580;52.562;13.418;2023-07-29T13:24:13;28.80;53.50
22827;DHT22;11580;52.562;13.418;2023-07-29T13:26:40;28.80;52.30
22827;DHT22;11580;52.562;13.418;2023-07-29T13:29:09;28.90;52.00
22827;DHT22;11580;52.562;13.418;2023-07-29T13:31:36;28.90;52.10
22827;DHT22;11580;52.562;13.418;2023-07-29T13:34:03;28.90;52.30
22827;DHT22;11580;52.562;13.418;2023-07-29T13:36:30;28.90;53.00
22827;DHT22;11580;52.562;13.418;2023-07-29T13:38:57;28.90;52.30
22827;DHT22;11580;52.562;13.418;2023-07-29T13:41:25;28.90;53.40
22827;DHT22;11580;52.562;13.418;2023-07-29T13:43:52;29.00;53.50
22827;DHT22;11580;52.562;13.418;2023-07-29T13:46:20;29.10;53.70
22827;DHT22;11580;52.562;13.418;2023-07-29T13:48:47;29.20;53.80
22827;DHT22;11580;52.562;13.418;2023-07-29T13:51:14;29.30;53.90
22827;DHT22;11580;52.562;13.418;2023-07-29T13:53:42;29.40;53.60
22827;DHT22;11580;52.562;13.418;2023-07-29T13:56:09;29.60;54.20
22827;DHT22;11580;52.562;13.418;2023-07-29T13:58:36;29.70;54.30
22827;DHT22;11580;52.562;13.418;2023-07-29T14:01:03;29.80;53.40
22827;DHT22;11580;52.562;13.418;2023-07-29T14:03:32;30.00;53.30
22827;DHT22;11580;52.562;13.418;2023-07-29T14:05:59;30.00;52.70
22827;DHT22;11580;52.562;13.418;2023-07-29T14:08:26;30.20;53.10
22827;DHT22;11580;52.562;13.418;2023-07-29T14:10:53;30.30;52.40
22827;DHT22;11580;52.562;13.418;2023-07-29T14:13:20;30.30;51.50
22827;DHT22;11580;52.562;13.418;2023-07-29T14:15:48;30.40;50.50
22827;DHT22;11580;52.562;13.418;2023-07-29T14:18:15;30.40;50.10
22827;DHT22;11580;52.562;13.418;2023-07-29T14:20:43;30.40;48.90
22827;DHT22;11580;52.562;13.418;2023-07-29T14:23:10;30.40;48.10
22827;DHT22;11580;52.562;13.418;2023-07-29T14:25:38;30.40;47.30
22827;DHT22;11580;52.562;13.418;2023-07-29T14:28:05;30.40;46.20
22827;DHT22;11580;52.562;13.418;2023-07-29T14:30:32;30.30;45.00
22827;DHT22;11580;52.562;13.418;2023-07-29T14:32:59;30.30;44.40
22827;DHT22;11580;52.562;13.418;2023-07-29T14:35:26;30.20;43.80
22827;DHT22;11580;52.562;13.418;2023-07-29T14:37:55;30.20;43.40
22827;DHT22;11580;52.562;13.418;2023-07-29T14:40:22;30.20;41.60
22827;DHT22;11580;52.562;13.418;2023-07-29T14:42:49;30.10;41.00
22827;DHT22;11580;52.562;13.418;2023-07-29T14:45:16;30.10;40.30
22827;DHT22;11580;52.562;13.418;2023-07-29T14:47:43;30.00;39.70
22827;DHT22;11580;52.562;13.418;2023-07-29T14:50:11;29.90;39.30
22827;DHT22;11580;52.562;13.418;2023-07-29T14:52:38;29.80;39.00
22827;DHT22;11580;52.562;13.418;2023-07-29T14:55:07;29.80;39.50
22827;DHT22;11580;52.562;13.418;2023-07-29T14:57:35;29.70;37.70
22827;DHT22;11580;52.562;13.418;2023-07-29T15:00:03;29.60;39.30
22827;DHT22;11580;52.562;13.418;2023-07-29T15:02:31;29.50;38.50
22827;DHT22;11580;52.562;13.418;2023-07-29T15:04:59;29.50;38.20
22827;DHT22;11580;52.562;13.418;2023-07-29T15:07:26;29.50;39.00
22827;DHT22;11580;52.562;13.418;2023-07-29T15:09:53;29.40;38.10
22827;DHT22;11580;52.562;13.418;2023-07-29T15:12:21;29.30;38.10
22827;DHT22;11580;52.562;13.418;2023-07-29T15:14:48;29.30;37.40
22827;DHT22;11580;52.562;13.418;2023-07-29T15:17:16;29.20;37.30
22827;DHT22;11580;52.562;13.418;2023-07-29T15:19:43;29.10;37.30
22827;DHT22;11580;52.562;13.418;2023-07-29T15:22:10;29.00;38.00
22827;DHT22;11580;52.562;13.418;2023-07-29T15:24:37;28.90;37.50
22827;DHT22;11580;52.562;13.418;2023-07-29T15:27:08;28.80;37.30
22827;DHT22;11580;52.562;13.418;2023-07-29T15:29:37;28.70;37.50